Valkyrie — WDE9186 — position and weather

sailwx.info

Track history (hours):
 
Tides and Currents Weather Stations Pressure Air Temp Water Temp Dewpoint Dewpoint Depression Visibility Wind Speed Wind Dir Waves Ship Positions

Valkyrie

Owner: Marina Management Corp., Pensacola, FL. More information available from US FCC via Universal Licensing System and Coast Guard Vessel Documentation Center.

Last reported at 2016-Jun-22 17:13 UTC. Time now 2016-Jun-25 23:17 UTC.
Position N 25°54' W 080°08'.

Length 23 m; draft 2.1 m.

Type: Pleasure craft. MMSI: 367414480.

Date/timePositionNaut miles runAvg speedWind from/ knotsBaromVisibWave heightAir tempDewpointWater temp
2016-Jun-22 17:13N 25°54' W 080°08'4 6.4
2016-Jun-22 16:32N 25°58' W 080°07'5 5.3
2016-Jun-22 15:33N 26°03' W 080°07'5 5.5
2016-Jun-22 14:33N 26°08' W 080°06'6 5.6
2016-Jun-22 13:33N 26°14' W 080°06'4 3.6
2016-Jun-22 12:34N 26°17' W 080°05'3 3.1
2016-Jun-22 11:30N 26°21' W 080°04'0 0.0
2016-Jun-22 08:13N 26°21' W 080°04'0 0.0
2016-Jun-22 03:22N 26°21' W 080°04'0 0.0
2016-Jun-22 02:29N 26°21' W 080°04'0 0.0
2016-Jun-22 01:04N 26°21' W 080°04'0 0.0
2016-Jun-22 00:26N 26°21' W 080°04'0 0.0
2016-Jun-21 23:16N 26°21' W 080°04'32 5.5
2016-Jun-21 17:33N 26°52' W 080°04'5 5.1
2016-Jun-21 16:33N 26°57' W 080°05'  
Track history (hours):
 
Tides and Currents Weather Stations Pressure Air Temp Water Temp Dewpoint Dewpoint Depression Visibility Wind Speed Wind Dir Waves Ship Positions

Valkyrie

Owner: Marina Management Corp., Pensacola, FL. More information available from US FCC via Universal Licensing System and Coast Guard Vessel Documentation Center.

Last reported at 2016-Jun-22 17:13 UTC. Time now 2016-Jun-25 23:17 UTC.
Position N 25°54' W 080°08'.

Length 23 m; draft 2.1 m.

Type: Pleasure craft. MMSI: 367414480.

Date/timePositionNaut miles runAvg speedWind from/ knotsBaromVisibWave heightAir tempDewpointWater temp
2016-Jun-22 17:13N 25°54' W 080°08'4 6.4
2016-Jun-22 16:32N 25°58' W 080°07'5 5.3
2016-Jun-22 15:33N 26°03' W 080°07'5 5.5
2016-Jun-22 14:33N 26°08' W 080°06'6 5.6
2016-Jun-22 13:33N 26°14' W 080°06'4 3.6
2016-Jun-22 12:34N 26°17' W 080°05'3 3.1
2016-Jun-22 11:30N 26°21' W 080°04'0 0.0
2016-Jun-22 08:13N 26°21' W 080°04'0 0.0
2016-Jun-22 03:22N 26°21' W 080°04'0 0.0
2016-Jun-22 02:29N 26°21' W 080°04'0 0.0
2016-Jun-22 01:04N 26°21' W 080°04'0 0.0
2016-Jun-22 00:26N 26°21' W 080°04'0 0.0
2016-Jun-21 23:16N 26°21' W 080°04'32 5.5
2016-Jun-21 17:33N 26°52' W 080°04'5 5.1
2016-Jun-21 16:33N 26°57' W 080°05'  

Dump ship's entire track history